createdAt,value
2022-08-01T00:00:10.476Z,96889.47
2022-08-01T00:02:39.706Z,96887.06
2022-08-01T00:05:10.055Z,96879.25
2022-08-01T00:07:38.702Z,96879.31
2022-08-01T00:10:09.019Z,96876.19
2022-08-01T00:12:37.079Z,96887.53
2022-08-01T00:15:08.179Z,96880.91
2022-08-01T00:17:36.308Z,96879.38
2022-08-01T00:20:07.470Z,96877.03
2022-08-01T00:22:36.014Z,96882.50
2022-08-01T00:25:05.701Z,96878.59
2022-08-01T00:27:37.585Z,96877.03
2022-08-01T00:30:11.682Z,96879.34
2022-08-01T00:32:42.371Z,96878.50
2022-08-01T00:35:10.887Z,96887.06
2022-08-01T00:37:39.025Z,96879.97
2022-08-01T00:40:08.964Z,96881.50
2022-08-01T00:42:41.519Z,96882.22
2022-08-01T00:45:13.512Z,96875.94
2022-08-01T00:47:41.609Z,96878.25
2022-08-01T00:50:11.104Z,96878.66
2022-08-01T00:52:39.600Z,96882.47
2022-08-01T00:55:08.505Z,96872.72
2022-08-01T00:58:03.323Z,96873.44
2022-08-01T01:00:32.907Z,96881.25
2022-08-01T01:03:03.369Z,96886.72
2022-08-01T01:05:37.338Z,96879.69
2022-08-01T01:08:09.239Z,96878.78
2022-08-01T01:10:44.717Z,96877.59
2022-08-01T01:13:15.488Z,96878.72
2022-08-01T01:15:48.339Z,96875.56
2022-08-01T01:18:19.850Z,96875.50
2022-08-01T01:20:51.689Z,96881.41
2022-08-01T01:23:36.881Z,96880.63
2022-08-01T01:26:19.827Z,96884.09
2022-08-01T01:29:00.161Z,96880.16
2022-08-01T01:31:28.441Z,96887.16
2022-08-01T01:33:58.009Z,96879.25
2022-08-01T01:36:27.115Z,96883.53
2022-08-01T01:38:55.884Z,96884.66
2022-08-01T01:41:24.449Z,96885.38
2022-08-01T01:43:52.760Z,96884.19
2022-08-01T01:46:27.981Z,96884.91
2022-08-01T01:48:58.363Z,96883.72
2022-08-01T01:51:27.855Z,96886.34
2022-08-01T01:53:56.423Z,96877.59
2022-08-01T01:56:25.427Z,96876.44
2022-08-01T01:58:57.217Z,96877.56
2022-08-01T02:01:38.681Z,96877.91
2022-08-01T02:04:18.187Z,96880.97
2022-08-01T02:06:48.443Z,96875.88
2022-08-01T02:09:19.433Z,96880.53
2022-08-01T02:12:05.005Z,96882.13
2022-08-01T02:14:37.177Z,96883.28
2022-08-01T02:17:06.894Z,96884.84
2022-08-01T02:19:37.881Z,96888.75
2022-08-01T02:22:10.060Z,96891.06
2022-08-01T02:24:43.199Z,96887.91
2022-08-01T02:27:13.237Z,96894.09
2022-08-01T02:29:44.007Z,96897.19
2022-08-01T02:32:16.997Z,96888.50
2022-08-01T02:34:46.508Z,96886.91
2022-08-01T02:37:15.140Z,96895.84
2022-08-01T02:39:43.417Z,96896.22
2022-08-01T02:42:13.476Z,96884.06
2022-08-01T02:44:44.269Z,96884.50
2022-08-01T02:47:12.344Z,96885.97
2022-08-01T02:49:46.369Z,96896.13
2022-08-01T02:52:22.731Z,96903.06
2022-08-01T02:54:51.902Z,96905.00
2022-08-01T02:57:20.677Z,96903.06
2022-08-01T02:59:50.229Z,96896.31
2022-08-01T03:02:19.268Z,96901.44
2022-08-01T03:04:52.709Z,96900.69
2022-08-01T03:07:25.751Z,96909.28
2022-08-01T03:10:03.758Z,96911.56
2022-08-01T03:12:35.114Z,96911.88
2022-08-01T03:15:05.334Z,96908.72
2022-08-01T03:17:34.589Z,96913.75
2022-08-01T03:20:04.991Z,96911.91
2022-08-01T03:22:33.861Z,96912.56
2022-08-01T03:25:03.710Z,96915.94
2022-08-01T03:27:32.010Z,96922.50
2022-08-01T03:30:00.542Z,96922.44
2022-08-01T03:32:29.301Z,96920.13
2022-08-01T03:34:57.551Z,96925.53
2022-08-01T03:37:29.025Z,96925.47
2022-08-01T03:40:00.834Z,96919.13
2022-08-01T03:42:33.714Z,96922.06
2022-08-01T03:45:05.187Z,96926.66
2022-08-01T03:47:41.923Z,96930.09
2022-08-01T03:50:13.848Z,96926.94
2022-08-01T03:52:46.036Z,96932.84
2022-08-01T03:55:15.121Z,96943.00
2022-08-01T03:57:43.523Z,96940.09
2022-08-01T04:00:12.463Z,96940.09
2022-08-01T04:02:41.050Z,96937.09
2022-08-01T04:05:09.827Z,96944.94
2022-08-01T04:07:40.041Z,96949.66
2022-08-01T04:10:09.870Z,96944.97
2022-08-01T04:12:37.936Z,96946.13
2022-08-01T04:15:07.603Z,96949.66
2022-08-01T04:17:35.645Z,96956.19
2022-08-01T04:20:04.372Z,96964.19
2022-08-01T04:22:32.689Z,96962.72
2022-08-01T04:25:10.244Z,96963.94
2022-08-01T04:27:50.612Z,96970.88
2022-08-01T04:30:22.456Z,96977.94
2022-08-01T04:32:51.871Z,96975.38
2022-08-01T04:35:23.327Z,96984.81
2022-08-01T04:38:10.851Z,96983.22
2022-08-01T04:40:40.441Z,96982.19
2022-08-01T04:43:08.973Z,96979.19
2022-08-01T04:45:37.716Z,96984.69
2022-08-01T04:48:07.796Z,96980.13
2022-08-01T04:50:37.153Z,96980.13
2022-08-01T04:53:06.149Z,96983.44
2022-08-01T04:55:34.264Z,96992.69
2022-08-01T04:58:03.713Z,96985.03
2022-08-01T05:00:31.798Z,96994.34
2022-08-01T05:02:59.969Z,96992.22
2022-08-01T05:05:28.260Z,96989.19
2022-08-01T05:07:56.928Z,96993.97
2022-08-01T05:10:25.075Z,97007.50
2022-08-01T05:12:53.147Z,97004.88
2022-08-01T05:15:22.607Z,97002.50
2022-08-01T05:17:50.902Z,97002.41
2022-08-01T05:20:19.026Z,97010.59
2022-08-01T05:22:47.147Z,97003.94
2022-08-01T05:25:20.228Z,97012.03
2022-08-01T05:27:54.808Z,97016.50
2022-08-01T05:30:24.474Z,97013.72
2022-08-01T05:32:52.587Z,97012.63
2022-08-01T05:35:20.985Z,97022.56
2022-08-01T05:37:49.081Z,97020.91
2022-08-01T05:40:17.129Z,97034.13
2022-08-01T05:42:45.189Z,97032.78
2022-08-01T05:45:13.284Z,97030.47
2022-08-01T05:47:43.006Z,97022.22
2022-08-01T05:50:11.523Z,97030.41
2022-08-01T05:52:39.601Z,97032.50
2022-08-01T05:55:09.021Z,97035.38
2022-08-01T05:57:37.465Z,97030.75
2022-08-01T06:00:10.818Z,97036.50
2022-08-01T06:02:46.063Z,97038.22
2022-08-01T06:05:14.269Z,97040.38
2022-08-01T06:07:42.628Z,97039.72
2022-08-01T06:10:11.164Z,97048.03
2022-08-01T06:12:39.971Z,97042.88
2022-08-01T06:15:08.843Z,97050.13
2022-08-01T06:17:36.990Z,97052.72
2022-08-01T06:20:07.728Z,97046.84
2022-08-01T06:22:35.881Z,97052.84
2022-08-01T06:25:05.431Z,97052.63
2022-08-01T06:27:36.261Z,97053.22
2022-08-01T06:30:04.784Z,97051.88
2022-08-01T06:32:32.856Z,97046.53
2022-08-01T06:35:00.971Z,97047.91
2022-08-01T06:37:32.864Z,97046.16
2022-08-01T06:40:02.864Z,97058.31
2022-08-01T06:42:32.602Z,97056.22
2022-08-01T06:45:00.718Z,97064.38
2022-08-01T06:47:28.880Z,97051.63
2022-08-01T06:49:56.948Z,97062.38
2022-08-01T06:52:25.611Z,97061.47
2022-08-01T06:54:55.246Z,97065.53
2022-08-01T06:57:23.304Z,97055.16
2022-08-01T06:59:54.174Z,97067.00
2022-08-01T07:02:22.863Z,97076.66
2022-08-01T07:04:50.923Z,97063.00
2022-08-01T07:07:19.019Z,97078.25
2022-08-01T07:09:47.123Z,97070.56
2022-08-01T07:12:16.598Z,97067.66
2022-08-01T07:14:44.824Z,97076.44
2022-08-01T07:17:12.905Z,97072.78
2022-08-01T07:19:41.091Z,97080.22
2022-08-01T07:22:11.049Z,97069.69
2022-08-01T07:24:39.136Z,97073.25
2022-08-01T07:27:23.768Z,97079.34
2022-08-01T07:29:53.914Z,97077.88
2022-08-01T07:32:22.068Z,97078.72
2022-08-01T07:34:50.133Z,97073.31
2022-08-01T07:37:18.283Z,97079.69
2022-08-01T07:40:07.415Z,97067.00
2022-08-01T07:42:35.463Z,97067.56
2022-08-01T07:45:05.799Z,97073.06
2022-08-01T07:47:33.834Z,97068.53
2022-08-01T07:50:02.728Z,97073.94
2022-08-01T07:52:31.261Z,97066.63
2022-08-01T07:54:59.667Z,97069.03
2022-08-01T07:57:27.852Z,97070.31
2022-08-01T07:59:56.448Z,97072.78
2022-08-01T08:02:25.952Z,97068.19
2022-08-01T08:04:54.145Z,97063.94
2022-08-01T08:07:22.272Z,97064.34
2022-08-01T08:09:51.269Z,97066.47
2022-08-01T08:12:28.917Z,97067.72
2022-08-01T08:14:59.363Z,97059.19
2022-08-01T08:17:29.107Z,97058.41
2022-08-01T08:20:04.216Z,97063.63
2022-08-01T08:22:34.651Z,97071.19
2022-08-01T08:25:02.745Z,97066.59
2022-08-01T08:27:30.903Z,97069.03
2022-08-01T08:29:59.008Z,97061.66
2022-08-01T08:32:28.489Z,97065.97
2022-08-01T08:34:56.534Z,97065.31
2022-08-01T08:37:24.560Z,97059.94
2022-08-01T08:39:59.558Z,97067.88
2022-08-01T08:42:28.023Z,97060.88
2022-08-01T08:44:56.345Z,97057.84
2022-08-01T08:47:26.703Z,97062.72
2022-08-01T08:49:58.155Z,97061.19
2022-08-01T08:52:26.349Z,97057.75
2022-08-01T08:54:54.650Z,97061.25
2022-08-01T08:57:23.328Z,97060.22
2022-08-01T08:59:55.168Z,97060.63
2022-08-01T09:02:23.697Z,97059.03
2022-08-01T09:04:51.939Z,97057.94
2022-08-01T09:07:21.547Z,97053.66
2022-08-01T09:09:50.287Z,97054.47
2022-08-01T09:12:21.317Z,97052.53
2022-08-01T09:14:54.347Z,97064.28
2022-08-01T09:17:22.812Z,97063.94
2022-08-01T09:19:54.404Z,97054.59
2022-08-01T09:22:25.474Z,97056.28
2022-08-01T09:25:01.837Z,97061.88
2022-08-01T09:27:30.554Z,97064.34
2022-08-01T09:30:10.412Z,97056.56
2022-08-01T09:32:46.076Z,97055.81
2022-08-01T09:35:31.054Z,97058.22
2022-08-01T09:38:16.464Z,97053.56
2022-08-01T09:40:52.881Z,97049.66
2022-08-01T09:43:23.047Z,97057.16
2022-08-01T09:45:53.452Z,97054.38
2022-08-01T09:48:28.563Z,97062.22
2022-08-01T09:51:04.722Z,97053.66
2022-08-01T09:53:52.385Z,97054.44
2022-08-01T09:56:22.887Z,97052.59
2022-08-01T09:58:59.909Z,97053.03
2022-08-01T10:01:37.045Z,97049.09
2022-08-01T10:04:11.534Z,97047.56
2022-08-01T10:06:41.520Z,97048.34
2022-08-01T10:09:12.074Z,97044.84
2022-08-01T10:11:44.878Z,97040.13
2022-08-01T10:14:17.897Z,97036.56
2022-08-01T10:16:53.687Z,97033.44
2022-08-01T10:19:33.758Z,97031.94
2022-08-01T10:22:02.705Z,97036.63
2022-08-01T10:24:33.327Z,97026.41
2022-08-01T10:27:08.266Z,97035.06
2022-08-01T10:29:59.304Z,97024.81
2022-08-01T10:32:30.790Z,97019.31
2022-08-01T10:34:59.387Z,97018.91
2022-08-01T10:37:35.983Z,97018.09
2022-08-01T10:40:31.238Z,97013.78
2022-08-01T10:42:59.974Z,97013.00
2022-08-01T10:45:30.626Z,97008.28
2022-08-01T10:48:04.745Z,97001.13
2022-08-01T10:50:35.647Z,96995.63
2022-08-01T10:53:16.721Z,96997.22
2022-08-01T10:56:01.358Z,96992.47
2022-08-01T10:58:39.481Z,96996.78
2022-08-01T11:01:23.795Z,96985.00
2022-08-01T11:04:04.898Z,96994.47
2022-08-01T11:06:57.075Z,96995.66
2022-08-01T11:09:41.405Z,96990.59
2022-08-01T11:12:20.418Z,96987.81
2022-08-01T11:15:31.047Z,96973.19
2022-08-01T11:18:06.050Z,96969.69
2022-08-01T11:20:36.012Z,96975.16
2022-08-01T11:23:29.763Z,96980.66
2022-08-01T11:26:11.680Z,96977.47
2022-08-01T11:28:50.364Z,96980.59
2022-08-01T11:31:36.969Z,96972.03
2022-08-01T11:34:05.387Z,96971.97
2022-08-01T11:36:57.689Z,96970.41
2022-08-01T11:39:21.868Z,96971.16
2022-08-01T11:41:50.684Z,96965.63
2022-08-01T11:44:24.812Z,96971.16
2022-08-01T11:47:03.078Z,96970.41
2022-08-01T11:49:50.436Z,96970.38
2022-08-01T11:52:20.759Z,96966.81
2022-08-01T11:54:50.691Z,96970.41
2022-08-01T11:57:23.057Z,96966.47
2022-08-01T12:00:03.427Z,96967.97
2022-08-01T12:02:41.369Z,96970.34
2022-08-01T12:05:14.062Z,96972.75
2022-08-01T12:07:43.638Z,96975.94
2022-08-01T12:10:13.731Z,96971.22
2022-08-01T12:12:45.628Z,96968.00
2022-08-01T12:15:15.534Z,96963.72
2022-08-01T12:17:45.833Z,96956.91
2022-08-01T12:20:30.363Z,96965.13
2022-08-01T12:22:59.169Z,96953.59
2022-08-01T12:25:27.297Z,96952.78
2022-08-01T12:27:56.907Z,96952.78
2022-08-01T12:30:27.909Z,96955.50
2022-08-01T12:32:56.983Z,96954.31
2022-08-01T12:35:26.745Z,96955.81
2022-08-01T12:37:56.207Z,96944.53
2022-08-01T12:40:25.639Z,96950.16
2022-08-01T12:42:55.416Z,96953.81
2022-08-01T12:45:25.393Z,96954.91
2022-08-01T12:47:56.030Z,96955.34
2022-08-01T12:50:26.210Z,96952.13
2022-08-01T12:52:54.872Z,96948.19
2022-08-01T12:55:25.229Z,96945.81
2022-08-01T12:58:06.631Z,96956.06
2022-08-01T13:00:35.359Z,96943.53
2022-08-01T13:03:06.992Z,96945.94
2022-08-01T13:05:46.091Z,96946.31
2022-08-01T13:08:14.967Z,96948.28
2022-08-01T13:10:43.887Z,96954.66
2022-08-01T13:13:22.316Z,96954.31
2022-08-01T13:16:05.304Z,96948.03
2022-08-01T13:18:35.811Z,96946.03
2022-08-01T13:21:11.720Z,96945.97
2022-08-01T13:24:02.052Z,96947.47
2022-08-01T13:26:40.318Z,96942.78
2022-08-01T13:29:09.097Z,96949.09
2022-08-01T13:31:37.898Z,96933.28
2022-08-01T13:34:07.535Z,96943.09
2022-08-01T13:36:36.616Z,96938.78
2022-08-01T13:39:23.676Z,96934.00
2022-08-01T13:41:52.052Z,96935.81
2022-08-01T13:44:20.227Z,96935.63
2022-08-01T13:46:49.659Z,96934.31
2022-08-01T13:49:20.880Z,96944.47
2022-08-01T13:51:52.002Z,96933.50
2022-08-01T13:54:20.677Z,96935.13
2022-08-01T13:56:49.050Z,96938.22
2022-08-01T13:59:17.206Z,96944.13
2022-08-01T14:01:45.446Z,96931.91
2022-08-01T14:04:13.615Z,96936.72
2022-08-01T14:06:43.314Z,96937.53
2022-08-01T14:09:17.849Z,96938.66
2022-08-01T14:11:52.070Z,96941.94
2022-08-01T14:14:20.169Z,96928.31
2022-08-01T14:16:49.184Z,96925.69
2022-08-01T14:19:19.356Z,96934.19
2022-08-01T14:22:06.579Z,96943.84
2022-08-01T14:24:34.734Z,96937.97
2022-08-01T14:27:03.229Z,96935.84
2022-08-01T14:30:00.185Z,96941.91
2022-08-01T14:32:19.375Z,96946.84
2022-08-01T14:34:51.278Z,96946.72
2022-08-01T14:37:20.769Z,96948.03
2022-08-01T14:39:54.577Z,96942.03
2022-08-01T14:42:23.022Z,96943.34
2022-08-01T14:44:51.079Z,96940.19
2022-08-01T14:47:21.535Z,96938.63
2022-08-01T14:49:50.485Z,96938.88
2022-08-01T14:52:20.564Z,96948.19
2022-08-01T14:54:48.779Z,96941.88
2022-08-01T14:57:19.231Z,96940.56
2022-08-01T14:59:48.307Z,96948.47
2022-08-01T15:02:18.234Z,96951.09
2022-08-01T15:04:46.560Z,96946.88
2022-08-01T15:07:15.216Z,96954.00
2022-08-01T15:09:45.076Z,96951.47
2022-08-01T15:12:13.635Z,96954.22
2022-08-01T15:14:50.939Z,96947.84
2022-08-01T15:17:20.531Z,96958.16
2022-08-01T15:19:53.577Z,96965.16
2022-08-01T15:22:22.413Z,96956.97
2022-08-01T15:24:57.100Z,96958.03
2022-08-01T15:27:28.081Z,96944.63
2022-08-01T15:29:57.104Z,96948.06
2022-08-01T15:32:25.648Z,96947.63
2022-08-01T15:34:53.960Z,96954.84
2022-08-01T15:37:23.070Z,96951.13
2022-08-01T15:39:54.717Z,96952.72
2022-08-01T15:42:25.521Z,96955.13
2022-08-01T15:44:55.478Z,96962.91
2022-08-01T15:47:24.915Z,96965.00
2022-08-01T15:49:53.412Z,96953.72
2022-08-01T15:52:23.195Z,96960.81
2022-08-01T15:55:00.434Z,96966.41
2022-08-01T15:57:28.553Z,96981.31
2022-08-01T15:59:56.642Z,96983.00
2022-08-01T16:02:24.815Z,96997.22
2022-08-01T16:04:52.935Z,97001.56
2022-08-01T16:07:21.242Z,96996.47
2022-08-01T16:09:49.805Z,97007.53
2022-08-01T16:12:19.290Z,97013.03
2022-08-01T16:14:48.108Z,97014.63
2022-08-01T16:17:16.204Z,97015.41
2022-08-01T16:19:44.617Z,97007.50
2022-08-01T16:22:12.720Z,97016.16
2022-08-01T16:24:41.272Z,97030.63
2022-08-01T16:27:09.725Z,97027.72
2022-08-01T16:29:39.399Z,97030.38
2022-08-01T16:32:16.421Z,97027.56
2022-08-01T16:34:52.030Z,97028.34
2022-08-01T16:37:20.093Z,97022.50
2022-08-01T16:39:48.254Z,97020.16
2022-08-01T16:42:16.303Z,97013.41
2022-08-01T16:44:45.927Z,97003.88
2022-08-01T16:47:14.001Z,96999.91
2022-08-01T16:49:42.170Z,96995.16
2022-08-01T16:52:10.623Z,96992.53
2022-08-01T16:54:39.001Z,96999.25
2022-08-01T16:57:07.930Z,96989.84
2022-08-01T16:59:41.291Z,96980.06
2022-08-01T17:02:11.815Z,96987.53
2022-08-01T17:05:07.034Z,96977.38
2022-08-01T17:07:37.461Z,96978.91
2022-08-01T17:10:06.761Z,96973.41
2022-08-01T17:12:35.693Z,96981.28
2022-08-01T17:15:04.936Z,96978.91
2022-08-01T17:17:34.455Z,96985.56
2022-08-01T17:20:02.940Z,96972.63
2022-08-01T17:22:31.034Z,96969.47
2022-08-01T17:24:59.055Z,96969.47
2022-08-01T17:27:27.347Z,96971.00
2022-08-01T17:29:55.432Z,96977.28
2022-08-01T17:32:23.570Z,96982.69
2022-08-01T17:34:52.970Z,96981.91
2022-08-01T17:37:21.057Z,96974.03
2022-08-01T17:39:49.184Z,96977.91
2022-08-01T17:42:17.233Z,96968.50
2022-08-01T17:44:48.775Z,96972.00
2022-08-01T17:47:50.714Z,96972.78
2022-08-01T17:50:20.969Z,96981.75
2022-08-01T17:52:49.370Z,96970.28
2022-08-01T17:55:53.359Z,96969.91
2022-08-01T17:58:06.046Z,96979.28
2022-08-01T18:00:34.818Z,96970.66
2022-08-01T18:03:02.911Z,96978.53
2022-08-01T18:05:38.367Z,96975.41
2022-08-01T18:08:07.494Z,96976.19
2022-08-01T18:10:35.644Z,96973.63
2022-08-01T18:13:08.233Z,96970.94
2022-08-01T18:15:37.589Z,96973.69
2022-08-01T18:18:06.189Z,96976.00
2022-08-01T18:20:35.305Z,96987.75
2022-08-01T18:23:08.699Z,96983.03
2022-08-01T18:25:36.889Z,96989.31
2022-08-01T18:28:22.487Z,96982.22
2022-08-01T18:30:53.706Z,96985.38
2022-08-01T18:33:21.825Z,96980.22
2022-08-01T18:35:51.959Z,96986.09
2022-08-01T18:38:24.178Z,96982.97
2022-08-01T18:40:52.959Z,96982.13
2022-08-01T18:43:21.024Z,96979.00
2022-08-01T18:45:49.099Z,96979.72
2022-08-01T18:48:17.173Z,96982.06
2022-08-01T18:50:45.286Z,96985.56
2022-08-01T18:53:13.332Z,96985.13
2022-08-01T18:55:42.765Z,96996.03
2022-08-01T18:58:10.815Z,96995.66
2022-08-01T19:00:39.908Z,97003.44
2022-08-01T19:03:08.133Z,97003.03
2022-08-01T19:05:36.507Z,97008.50
2022-08-01T19:08:07.750Z,97002.97
2022-08-01T19:10:36.464Z,97012.38
2022-08-01T19:13:05.917Z,97005.28
2022-08-01T19:15:34.184Z,97005.22
2022-08-01T19:18:02.319Z,97006.38
2022-08-01T19:20:30.627Z,97009.53
2022-08-01T19:22:58.957Z,97015.38
2022-08-01T19:25:27.180Z,97011.84
2022-08-01T19:27:57.714Z,97023.16
2022-08-01T19:30:27.643Z,97025.50
2022-08-01T19:32:56.423Z,97028.56
2022-08-01T19:35:25.576Z,97024.56
2022-08-01T19:37:54.164Z,97034.72
2022-08-01T19:40:26.698Z,97044.81
2022-08-01T19:42:57.677Z,97039.66
2022-08-01T19:45:29.811Z,97047.03
2022-08-01T19:47:58.254Z,97046.63
2022-08-01T19:50:27.144Z,97049.38
2022-08-01T19:52:57.512Z,97053.28
2022-08-01T19:55:26.377Z,97050.09
2022-08-01T19:58:24.156Z,97050.84
2022-08-01T20:00:44.453Z,97050.06
2022-08-01T20:03:13.929Z,97053.13
2022-08-01T20:05:42.113Z,97064.44
2022-08-01T20:08:10.585Z,97061.63
2022-08-01T20:10:39.145Z,97067.84
2022-08-01T20:13:07.806Z,97069.94
2022-08-01T20:15:35.866Z,97071.41
2022-08-01T20:18:05.490Z,97067.94
2022-08-01T20:20:35.225Z,97060.56
2022-08-01T20:23:04.396Z,97063.31
2022-08-01T20:25:40.113Z,97073.81
2022-08-01T20:28:10.423Z,97066.38
2022-08-01T20:30:38.815Z,97078.78
2022-08-01T20:33:09.701Z,97076.00
2022-08-01T20:35:52.095Z,97075.22
2022-08-01T20:38:23.901Z,97070.56
2022-08-01T20:40:53.449Z,97080.41
2022-08-01T20:43:22.517Z,97091.00
2022-08-01T20:45:51.904Z,97087.91
2022-08-01T20:48:21.480Z,97096.47
2022-08-01T20:51:08.018Z,97098.06
2022-08-01T20:53:40.871Z,97102.38
2022-08-01T20:56:13.174Z,97097.25
2022-08-01T20:58:49.187Z,97103.53
2022-08-01T21:01:22.338Z,97105.84
2022-08-01T21:03:59.681Z,97103.84
2022-08-01T21:06:34.429Z,97096.34
2022-08-01T21:09:05.051Z,97086.94
2022-08-01T21:11:40.373Z,97090.75
2022-08-01T21:14:13.324Z,97097.69
2022-08-01T21:16:43.305Z,97098.13
2022-08-01T21:19:19.942Z,97098.13
2022-08-01T21:21:52.361Z,97111.81
2022-08-01T21:24:24.008Z,97101.59
2022-08-01T21:26:53.100Z,97101.19
2022-08-01T21:29:22.457Z,97097.69
2022-08-01T21:32:11.507Z,97114.09
2022-08-01T21:34:41.443Z,97111.75
2022-08-01T21:37:10.816Z,97108.94
2022-08-01T21:39:39.655Z,97117.13
2022-08-01T21:42:18.145Z,97120.22
2022-08-01T21:44:47.896Z,97128.75
2022-08-01T21:47:16.736Z,97127.44
2022-08-01T21:49:46.274Z,97132.41
2022-08-01T21:52:18.176Z,97141.44
2022-08-01T21:54:58.524Z,97149.28
2022-08-01T21:57:39.089Z,97148.28
2022-08-01T22:00:11.624Z,97150.81
2022-08-01T22:02:54.031Z,97156.56
2022-08-01T22:05:49.923Z,97166.66
2022-08-01T22:08:18.056Z,97169.84
2022-08-01T22:10:46.151Z,97180.09
2022-08-01T22:13:14.360Z,97190.47
2022-08-01T22:15:44.642Z,97174.19
2022-08-01T22:18:13.367Z,97191.28
2022-08-01T22:20:43.040Z,97190.41
2022-08-01T22:23:11.217Z,97191.84
2022-08-01T22:25:39.653Z,97193.13
2022-08-01T22:28:09.223Z,97184.91
2022-08-01T22:30:41.663Z,97177.66
2022-08-01T22:33:16.045Z,97177.81
2022-08-01T22:35:47.476Z,97169.56
2022-08-01T22:38:15.852Z,97172.50
2022-08-01T22:40:50.373Z,97168.75
2022-08-01T22:43:39.351Z,97172.66
2022-08-01T22:46:17.375Z,97171.72
2022-08-01T22:48:47.560Z,97168.75
2022-08-01T22:51:28.127Z,97170.78
2022-08-01T22:54:04.408Z,97157.66
2022-08-01T22:56:36.153Z,97144.59
2022-08-01T22:59:07.563Z,97143.19
2022-08-01T23:01:36.863Z,97143.59
2022-08-01T23:04:05.934Z,97143.94
2022-08-01T23:06:40.197Z,97129.34
2022-08-01T23:09:08.715Z,97137.63
2022-08-01T23:11:38.405Z,97141.31
2022-08-01T23:14:06.575Z,97136.41
2022-08-01T23:16:36.683Z,97138.00
2022-08-01T23:19:05.000Z,97135.19
2022-08-01T23:21:33.345Z,97133.31
2022-08-01T23:24:03.130Z,97127.34
2022-08-01T23:26:31.637Z,97131.22
2022-08-01T23:28:59.716Z,97137.28
2022-08-01T23:31:55.321Z,97131.81
2022-08-01T23:34:19.712Z,97128.69
2022-08-01T23:36:48.416Z,97129.94
2022-08-01T23:39:17.882Z,97143.53
2022-08-01T23:42:07.798Z,97144.25
2022-08-01T23:44:34.036Z,97144.88
2022-08-01T23:47:02.497Z,97149.41
2022-08-01T23:49:30.769Z,97150.06
2022-08-01T23:51:59.184Z,97156.84
2022-08-01T23:54:28.714Z,97148.78
2022-08-01T23:56:58.892Z,97152.41
2022-08-01T23:59:52.486Z,97152.69
